createdAt,value
2023-01-11T00:01:40.826Z,83.92
2023-01-11T00:03:43.494Z,84.67
2023-01-11T00:05:46.182Z,85.02
2023-01-11T00:07:48.783Z,85.17
2023-01-11T00:09:51.429Z,84.99
2023-01-11T00:11:55.136Z,85.71
2023-01-11T00:13:59.166Z,85.97
2023-01-11T00:16:07.148Z,86.08
2023-01-11T00:18:10.137Z,85.93
2023-01-11T00:20:12.915Z,86.71
2023-01-11T00:22:15.765Z,87.10
2023-01-11T00:24:18.449Z,87.09
2023-01-11T00:26:21.077Z,87.39
2023-01-11T00:28:23.658Z,87.40
2023-01-11T00:30:27.703Z,88.17
2023-01-11T00:32:30.376Z,88.44
2023-01-11T00:34:33.007Z,88.81
2023-01-11T00:36:35.819Z,89.32
2023-01-11T00:38:53.841Z,90.29
2023-01-11T00:40:56.636Z,91.84
2023-01-11T00:43:16.865Z,92.86
2023-01-11T00:45:51.776Z,94.10
2023-01-11T00:48:00.217Z,94.04
2023-01-11T00:50:03.483Z,94.04
2023-01-11T00:52:09.164Z,93.73
2023-01-11T00:54:12.290Z,93.02
2023-01-11T00:56:14.951Z,93.28
2023-01-11T00:58:17.627Z,93.17
2023-01-11T01:00:22.100Z,93.63
2023-01-11T01:02:24.973Z,93.90
2023-01-11T01:04:28.917Z,94.07
2023-01-11T01:06:32.042Z,94.44
2023-01-11T01:08:34.741Z,94.62
2023-01-11T01:10:37.490Z,95.00
2023-01-11T01:12:54.265Z,95.53
2023-01-11T01:14:56.967Z,95.92
2023-01-11T01:17:01.562Z,96.65
2023-01-11T01:19:04.552Z,96.67
2023-01-11T01:21:08.670Z,97.85
2023-01-11T01:23:11.361Z,97.83
2023-01-11T01:25:13.999Z,97.94
2023-01-11T01:27:17.907Z,98.19
2023-01-11T01:29:20.603Z,98.71
2023-01-11T01:31:23.368Z,99.26
2023-01-11T01:33:26.328Z,99.16
2023-01-11T01:35:28.959Z,99.22
2023-01-11T01:37:33.012Z,99.00
2023-01-11T01:39:35.670Z,99.82
2023-01-11T01:41:38.515Z,100.00
2023-01-11T01:43:51.040Z,100.00
2023-01-11T01:45:56.080Z,100.00
2023-01-11T01:48:01.464Z,100.00
2023-01-11T01:50:08.879Z,100.00
2023-01-11T01:52:12.940Z,100.00
2023-01-11T01:54:21.313Z,100.00
2023-01-11T01:56:28.083Z,100.00
2023-01-11T01:58:34.215Z,100.00
2023-01-11T02:00:39.368Z,100.00
2023-01-11T02:02:45.076Z,100.00
2023-01-11T02:04:49.118Z,100.00
2023-01-11T02:06:54.139Z,100.00
2023-01-11T02:09:05.937Z,100.00
2023-01-11T02:11:26.475Z,100.00
2023-01-11T02:13:30.194Z,100.00
2023-01-11T02:15:33.254Z,100.00
2023-01-11T02:17:35.818Z,100.00
2023-01-11T02:19:56.327Z,100.00
2023-01-11T02:22:32.450Z,100.00
2023-01-11T02:24:56.332Z,100.00
2023-01-11T02:27:31.446Z,100.00
2023-01-11T02:29:45.829Z,100.00
2023-01-11T02:31:57.063Z,100.00
2023-01-11T02:34:16.467Z,100.00
2023-01-11T02:36:28.069Z,100.00
2023-01-11T02:38:34.356Z,100.00
2023-01-11T02:40:45.204Z,100.00
2023-01-11T02:43:10.640Z,100.00
2023-01-11T02:45:22.372Z,100.00
2023-01-11T02:47:31.421Z,100.00
2023-01-11T02:49:40.401Z,100.00
2023-01-11T02:51:48.195Z,100.00
2023-01-11T02:53:56.364Z,100.00
2023-01-11T02:56:02.611Z,100.00
2023-01-11T02:58:09.228Z,100.00
2023-01-11T03:00:14.156Z,100.00
2023-01-11T03:02:18.376Z,100.00
2023-01-11T03:04:29.639Z,100.00
2023-01-11T03:06:35.974Z,100.00
2023-01-11T03:08:54.615Z,100.00
2023-01-11T03:11:01.539Z,100.00
2023-01-11T03:13:13.842Z,100.00
2023-01-11T03:15:44.143Z,100.00
2023-01-11T03:17:58.945Z,100.00
2023-01-11T03:20:08.591Z,100.00
2023-01-11T03:22:18.520Z,100.00
2023-01-11T03:24:29.978Z,100.00
2023-01-11T03:26:42.349Z,100.00
2023-01-11T03:28:56.210Z,100.00
2023-01-11T03:31:03.486Z,100.00
2023-01-11T03:33:12.686Z,100.00
2023-01-11T03:35:21.241Z,100.00
2023-01-11T03:37:27.945Z,100.00
2023-01-11T03:39:36.264Z,100.00
2023-01-11T03:41:41.268Z,100.00
2023-01-11T03:43:47.273Z,100.00
2023-01-11T03:45:54.829Z,100.00
2023-01-11T03:48:00.310Z,100.00
2023-01-11T03:50:07.862Z,100.00
2023-01-11T03:52:13.407Z,100.00
2023-01-11T03:54:21.297Z,100.00
2023-01-11T03:56:29.962Z,100.00
2023-01-11T03:58:32.636Z,100.00
2023-01-11T04:00:36.208Z,100.00
2023-01-11T04:02:41.757Z,100.00
2023-01-11T04:04:44.581Z,100.00
2023-01-11T04:06:48.640Z,100.00
2023-01-11T04:08:51.366Z,100.00
2023-01-11T04:10:54.024Z,100.00
2023-01-11T04:12:57.075Z,100.00
2023-01-11T04:15:01.390Z,100.00
2023-01-11T04:17:04.010Z,100.00
2023-01-11T04:19:06.702Z,100.00
2023-01-11T04:21:09.385Z,100.00
2023-01-11T04:23:15.016Z,100.00
2023-01-11T04:25:17.746Z,100.00
2023-01-11T04:27:20.337Z,100.00
2023-01-11T04:29:22.984Z,100.00
2023-01-11T04:31:25.702Z,100.00
2023-01-11T04:33:28.412Z,100.00
2023-01-11T04:35:31.100Z,100.00
2023-01-11T04:37:33.703Z,100.00
2023-01-11T04:39:37.660Z,100.00
2023-01-11T04:41:58.190Z,100.00
2023-01-11T04:44:00.862Z,100.00
2023-01-11T04:46:03.584Z,100.00
2023-01-11T04:48:06.705Z,100.00
2023-01-11T04:50:11.746Z,100.00
2023-01-11T04:52:21.644Z,100.00
2023-01-11T04:54:24.281Z,100.00
2023-01-11T04:56:29.257Z,100.00
2023-01-11T04:58:32.756Z,100.00
2023-01-11T05:00:35.412Z,100.00
2023-01-11T05:02:38.053Z,100.00
2023-01-11T05:04:40.923Z,100.00
2023-01-11T05:06:44.182Z,100.00
2023-01-11T05:08:47.884Z,100.00
2023-01-11T05:10:53.711Z,100.00
2023-01-11T05:12:57.623Z,100.00
2023-01-11T05:15:00.252Z,100.00
2023-01-11T05:17:03.734Z,100.00
2023-01-11T05:19:07.201Z,100.00
2023-01-11T05:21:11.045Z,100.00
2023-01-11T05:23:13.795Z,100.00
2023-01-11T05:25:16.640Z,100.00
2023-01-11T05:27:19.289Z,100.00
2023-01-11T05:29:23.285Z,100.00
2023-01-11T05:31:26.784Z,100.00
2023-01-11T05:33:29.924Z,100.00
2023-01-11T05:35:32.619Z,100.00
2023-01-11T05:37:35.518Z,100.00
2023-01-11T05:39:38.210Z,100.00
2023-01-11T05:41:41.388Z,100.00
2023-01-11T05:43:59.332Z,100.00
2023-01-11T05:46:03.458Z,100.00
2023-01-11T05:48:06.345Z,100.00
2023-01-11T05:50:10.400Z,100.00
2023-01-11T05:52:13.756Z,100.00
2023-01-11T05:54:16.827Z,100.00
2023-01-11T05:56:20.407Z,100.00
2023-01-11T05:58:24.150Z,100.00
2023-01-11T06:00:26.941Z,100.00
2023-01-11T06:02:30.979Z,100.00
2023-01-11T06:04:33.682Z,100.00
2023-01-11T06:06:36.618Z,100.00
2023-01-11T06:08:39.271Z,100.00
2023-01-11T06:10:42.152Z,100.00
2023-01-11T06:12:44.765Z,100.00
2023-01-11T06:14:47.391Z,100.00
2023-01-11T06:16:50.169Z,100.00
2023-01-11T06:18:54.416Z,100.00
2023-01-11T06:20:57.857Z,100.00
2023-01-11T06:23:00.546Z,100.00
2023-01-11T06:25:03.196Z,100.00
2023-01-11T06:27:05.889Z,100.00
2023-01-11T06:29:08.542Z,100.00
2023-01-11T06:31:11.381Z,100.00
2023-01-11T06:33:14.041Z,100.00
2023-01-11T06:35:18.121Z,100.00
2023-01-11T06:37:20.875Z,100.00
2023-01-11T06:39:23.649Z,100.00
2023-01-11T06:41:26.480Z,100.00
2023-01-11T06:43:30.621Z,100.00
2023-01-11T06:45:33.786Z,100.00
2023-01-11T06:47:36.368Z,100.00
2023-01-11T06:49:39.529Z,100.00
2023-01-11T06:51:43.500Z,100.00
2023-01-11T06:53:46.844Z,100.00
2023-01-11T06:55:51.583Z,100.00
2023-01-11T06:57:54.986Z,100.00
2023-01-11T06:59:57.716Z,100.00
2023-01-11T07:02:00.599Z,100.00
2023-01-11T07:04:03.241Z,100.00
2023-01-11T07:06:06.311Z,100.00
2023-01-11T07:08:11.158Z,100.00
2023-01-11T07:10:16.174Z,100.00
2023-01-11T07:12:18.852Z,100.00
2023-01-11T07:14:22.160Z,100.00
2023-01-11T07:16:24.869Z,100.00
2023-01-11T07:18:27.720Z,100.00
2023-01-11T07:20:30.720Z,100.00
2023-01-11T07:22:35.753Z,100.00
2023-01-11T07:24:39.811Z,100.00
2023-01-11T07:26:43.272Z,100.00
2023-01-11T07:28:45.959Z,100.00
2023-01-11T07:30:58.102Z,100.00
2023-01-11T07:33:04.250Z,100.00
2023-01-11T07:35:07.891Z,100.00
2023-01-11T07:37:28.717Z,100.00
2023-01-11T07:39:42.861Z,100.00
2023-01-11T07:42:05.070Z,100.00
2023-01-11T07:44:07.711Z,100.00
2023-01-11T07:46:10.490Z,100.00
2023-01-11T07:48:13.608Z,100.00
2023-01-11T07:50:16.968Z,100.00
2023-01-11T07:52:20.104Z,100.00
2023-01-11T07:54:22.772Z,100.00
2023-01-11T07:56:25.401Z,100.00
2023-01-11T07:58:29.404Z,100.00
2023-01-11T08:00:32.077Z,100.00
2023-01-11T08:02:34.844Z,100.00
2023-01-11T08:04:37.559Z,100.00
2023-01-11T08:06:40.259Z,100.00
2023-01-11T08:08:43.009Z,100.00
2023-01-11T08:10:45.648Z,100.00
2023-01-11T08:13:07.333Z,100.00
2023-01-11T08:15:14.038Z,100.00
2023-01-11T08:17:17.027Z,100.00
2023-01-11T08:19:19.793Z,100.00
2023-01-11T08:21:22.483Z,100.00
2023-01-11T08:23:25.415Z,100.00
2023-01-11T08:25:28.057Z,100.00
2023-01-11T08:27:30.707Z,100.00
2023-01-11T08:29:33.567Z,100.00
2023-01-11T08:31:37.575Z,100.00
2023-01-11T08:33:40.237Z,100.00
2023-01-11T08:35:43.105Z,100.00
2023-01-11T08:37:45.890Z,100.00
2023-01-11T08:39:49.668Z,100.00
2023-01-11T08:41:52.427Z,100.00
2023-01-11T08:43:55.465Z,100.00
2023-01-11T08:45:58.282Z,100.00
2023-01-11T08:48:02.231Z,100.00
2023-01-11T08:50:05.465Z,100.00
2023-01-11T08:52:08.149Z,100.00
2023-01-11T08:54:13.639Z,100.00
2023-01-11T08:56:16.292Z,100.00
2023-01-11T08:58:20.688Z,100.00
2023-01-11T09:00:24.352Z,100.00
2023-01-11T09:02:27.032Z,100.00
2023-01-11T09:04:31.159Z,100.00
2023-01-11T09:06:34.073Z,100.00
2023-01-11T09:08:36.883Z,100.00
2023-01-11T09:10:40.005Z,100.00
2023-01-11T09:12:42.893Z,100.00
2023-01-11T09:14:46.260Z,100.00
2023-01-11T09:16:49.708Z,100.00
2023-01-11T09:18:52.563Z,100.00
2023-01-11T09:20:56.717Z,100.00
2023-01-11T09:22:59.535Z,100.00
2023-01-11T09:25:03.425Z,100.00
2023-01-11T09:27:06.420Z,100.00
2023-01-11T09:29:09.146Z,100.00
2023-01-11T09:31:11.877Z,100.00
2023-01-11T09:33:14.610Z,100.00
2023-01-11T09:35:19.121Z,100.00
2023-01-11T09:37:23.686Z,100.00
2023-01-11T09:39:27.749Z,100.00
2023-01-11T09:42:05.350Z,100.00
2023-01-11T09:44:14.452Z,100.00
2023-01-11T09:46:17.915Z,100.00
2023-01-11T09:48:28.732Z,100.00
2023-01-11T09:50:35.976Z,100.00
2023-01-11T09:52:43.770Z,100.00
2023-01-11T09:54:47.244Z,100.00
2023-01-11T09:56:57.728Z,100.00
2023-01-11T09:59:07.602Z,100.00
2023-01-11T10:01:18.828Z,100.00
2023-01-11T10:03:54.534Z,100.00
2023-01-11T10:06:10.111Z,100.00
2023-01-11T10:18:25.530Z,100.00
2023-01-11T10:19:25.758Z,100.00
2023-01-11T10:21:29.185Z,100.00
2023-01-11T10:23:42.064Z,100.00
2023-01-11T10:25:51.581Z,100.00
2023-01-11T10:28:00.386Z,100.00
2023-01-11T10:30:22.233Z,100.00
2023-01-11T10:32:45.913Z,100.00
2023-01-11T10:35:00.548Z,100.00
2023-01-11T10:37:26.735Z,100.00
2023-01-11T10:39:55.531Z,100.00
2023-01-11T10:42:08.660Z,100.00
2023-01-11T10:44:19.139Z,100.00
2023-01-11T10:46:26.706Z,100.00
2023-01-11T10:48:33.475Z,100.00
2023-01-11T10:50:41.034Z,100.00
2023-01-11T10:52:51.869Z,100.00
2023-01-11T10:54:57.381Z,100.00
2023-01-11T10:57:14.063Z,100.00
2023-01-11T10:59:36.514Z,100.00
2023-01-11T11:01:54.367Z,100.00
2023-01-11T11:04:17.173Z,100.00
2023-01-11T11:06:32.728Z,100.00
2023-01-11T11:08:44.510Z,100.00
2023-01-11T11:10:57.483Z,100.00
2023-01-11T11:13:08.172Z,100.00
2023-01-11T11:15:18.811Z,100.00
2023-01-11T11:17:25.845Z,100.00
2023-01-11T11:19:32.810Z,100.00
2023-01-11T11:21:39.920Z,100.00
2023-01-11T11:23:42.979Z,100.00
2023-01-11T11:25:49.805Z,100.00
2023-01-11T11:28:02.091Z,100.00
2023-01-11T11:30:06.078Z,100.00
2023-01-11T11:32:19.867Z,100.00
2023-01-11T11:34:27.228Z,100.00
2023-01-11T11:36:42.014Z,100.00
2023-01-11T11:39:03.743Z,100.00
2023-01-11T11:41:09.676Z,100.00
2023-01-11T11:43:19.007Z,100.00
2023-01-11T11:45:21.833Z,100.00
2023-01-11T11:47:24.472Z,100.00
2023-01-11T11:49:28.032Z,100.00
2023-01-11T11:51:30.816Z,100.00
2023-01-11T11:53:42.923Z,100.00
2023-01-11T11:55:45.720Z,100.00
2023-01-11T11:57:49.893Z,100.00
2023-01-11T12:00:02.261Z,100.00
2023-01-11T12:02:16.867Z,100.00
2023-01-11T12:04:23.163Z,100.00
2023-01-11T12:06:28.641Z,100.00
2023-01-11T12:08:33.681Z,100.00
2023-01-11T12:10:36.409Z,100.00
2023-01-11T12:12:52.124Z,100.00
2023-01-11T12:15:24.893Z,100.00
2023-01-11T12:17:27.674Z,100.00
2023-01-11T12:19:35.831Z,100.00
2023-01-11T12:21:38.479Z,100.00
2023-01-11T12:23:41.141Z,100.00
2023-01-11T12:26:03.954Z,100.00
2023-01-11T12:28:16.759Z,100.00
2023-01-11T12:30:26.529Z,100.00
2023-01-11T12:32:48.174Z,100.00
2023-01-11T12:35:15.794Z,100.00
2023-01-11T12:37:31.809Z,100.00
2023-01-11T12:39:41.863Z,100.00
2023-01-11T12:42:08.292Z,100.00
2023-01-11T12:44:20.050Z,100.00
2023-01-11T12:46:30.945Z,100.00
2023-01-11T12:48:50.175Z,100.00
2023-01-11T12:51:07.202Z,100.00
2023-01-11T12:53:26.165Z,100.00
2023-01-11T12:55:41.448Z,100.00
2023-01-11T12:58:00.823Z,100.00
2023-01-11T13:00:16.839Z,100.00
2023-01-11T13:02:38.488Z,100.00
2023-01-11T13:04:50.042Z,100.00
2023-01-11T13:07:02.897Z,100.00
2023-01-11T13:09:16.784Z,100.00
2023-01-11T13:11:35.977Z,100.00
2023-01-11T13:13:52.011Z,100.00
2023-01-11T13:16:00.597Z,100.00
2023-01-11T13:18:14.079Z,100.00
2023-01-11T13:20:58.837Z,100.00
2023-01-11T13:23:04.905Z,100.00
2023-01-11T13:25:16.644Z,100.00
2023-01-11T13:27:22.945Z,100.00
2023-01-11T13:29:29.969Z,100.00
2023-01-11T13:31:35.840Z,100.00
2023-01-11T13:33:44.117Z,100.00
2023-01-11T13:35:51.790Z,100.00
2023-01-11T13:38:01.001Z,100.00
2023-01-11T13:40:11.485Z,100.00
2023-01-11T13:42:18.638Z,100.00
2023-01-11T13:44:24.743Z,100.00
2023-01-11T13:46:43.359Z,100.00
2023-01-11T13:48:52.553Z,100.00
2023-01-11T13:51:02.483Z,100.00
2023-01-11T13:53:12.985Z,100.00
2023-01-11T13:55:25.947Z,100.00
2023-01-11T13:57:36.067Z,100.00
2023-01-11T13:59:45.908Z,100.00
2023-01-11T14:01:54.441Z,100.00
2023-01-11T14:04:04.995Z,100.00
2023-01-11T14:06:27.731Z,100.00
2023-01-11T14:09:00.340Z,100.00
2023-01-11T14:11:14.354Z,100.00
2023-01-11T14:13:59.542Z,100.00
2023-01-11T14:16:09.010Z,100.00
2023-01-11T14:18:22.162Z,100.00
2023-01-11T14:20:33.873Z,100.00
2023-01-11T14:22:42.285Z,100.00
2023-01-11T14:24:55.006Z,100.00
2023-01-11T14:27:33.276Z,100.00
2023-01-11T14:30:05.761Z,100.00
2023-01-11T14:32:31.797Z,100.00
2023-01-11T14:34:59.670Z,100.00
2023-01-11T14:37:24.359Z,100.00
2023-01-11T14:40:24.010Z,100.00
2023-01-11T14:42:42.078Z,100.00
2023-01-11T14:45:20.612Z,100.00
2023-01-11T14:47:39.789Z,100.00
2023-01-11T14:50:08.321Z,100.00
2023-01-11T14:52:15.368Z,100.00
2023-01-11T14:54:23.390Z,100.00
2023-01-11T14:56:38.631Z,100.00
2023-01-11T14:59:04.674Z,100.00
2023-01-11T15:01:15.024Z,100.00
2023-01-11T15:03:35.991Z,100.00
2023-01-11T15:05:47.156Z,100.00
2023-01-11T15:07:51.595Z,100.00
2023-01-11T15:09:54.729Z,100.00
2023-01-11T15:12:13.153Z,100.00
2023-01-11T15:14:27.116Z,100.00
2023-01-11T15:17:00.711Z,100.00
2023-01-11T15:19:07.057Z,100.00
2023-01-11T15:21:18.460Z,100.00
2023-01-11T15:23:22.504Z,100.00
2023-01-11T15:25:27.607Z,100.00
2023-01-11T15:27:35.345Z,100.00
2023-01-11T15:29:42.708Z,100.00
2023-01-11T15:32:03.531Z,100.00
2023-01-11T15:34:19.769Z,100.00
2023-01-11T15:36:25.507Z,100.00
2023-01-11T15:38:34.179Z,100.00
2023-01-11T15:40:40.926Z,100.00
2023-01-11T15:43:09.124Z,100.00
2023-01-11T15:45:35.240Z,100.00
2023-01-11T15:47:57.306Z,100.00
2023-01-11T15:50:33.376Z,100.00
2023-01-11T15:53:13.035Z,100.00
2023-01-11T15:55:57.170Z,100.00
2023-01-11T15:58:33.611Z,100.00
2023-01-11T16:01:03.328Z,100.00
2023-01-11T16:03:26.472Z,100.00
2023-01-11T16:05:33.206Z,100.00
2023-01-11T16:07:40.441Z,100.00
2023-01-11T16:10:03.788Z,100.00
2023-01-11T16:12:22.061Z,100.00
2023-01-11T16:14:41.948Z,100.00
2023-01-11T16:16:45.857Z,100.00
2023-01-11T16:18:52.373Z,100.00
2023-01-11T16:21:01.791Z,100.00
2023-01-11T16:23:07.295Z,100.00
2023-01-11T16:25:15.687Z,100.00
2023-01-11T16:27:23.776Z,100.00
2023-01-11T16:29:28.902Z,100.00
2023-01-11T16:31:54.234Z,100.00
2023-01-11T16:34:07.495Z,100.00
2023-01-11T16:36:15.541Z,100.00
2023-01-11T16:38:20.665Z,100.00
2023-01-11T16:40:29.714Z,100.00
2023-01-11T16:42:40.670Z,100.00
2023-01-11T16:44:47.255Z,100.00
2023-01-11T16:47:11.265Z,100.00
2023-01-11T16:49:18.051Z,100.00
2023-01-11T16:51:21.528Z,100.00
2023-01-11T16:53:25.103Z,100.00
2023-01-11T16:55:36.012Z,100.00
2023-01-11T16:57:43.807Z,100.00
2023-01-11T17:00:01.720Z,100.00
2023-01-11T17:02:25.597Z,100.00
2023-01-11T17:04:30.889Z,100.00
2023-01-11T17:06:35.732Z,100.00
2023-01-11T17:08:40.418Z,100.00
2023-01-11T17:10:44.507Z,100.00
2023-01-11T17:12:50.153Z,100.00
2023-01-11T17:15:07.288Z,100.00
2023-01-11T17:17:12.738Z,100.00
2023-01-11T17:19:17.548Z,100.00
2023-01-11T17:21:23.253Z,100.00
2023-01-11T17:23:26.025Z,100.00
2023-01-11T17:25:43.602Z,100.00
2023-01-11T17:27:55.160Z,100.00
2023-01-11T17:29:59.242Z,100.00
2023-01-11T17:32:03.937Z,100.00
2023-01-11T17:34:08.621Z,100.00
2023-01-11T17:36:11.743Z,100.00
2023-01-11T17:38:20.957Z,100.00
2023-01-11T17:40:25.988Z,100.00
2023-01-11T17:42:46.370Z,100.00
2023-01-11T17:45:09.388Z,100.00
2023-01-11T17:47:13.690Z,100.00
2023-01-11T17:49:23.050Z,100.00
2023-01-11T17:51:27.248Z,100.00
2023-01-11T17:53:32.454Z,100.00
2023-01-11T17:55:35.835Z,100.00
2023-01-11T17:57:38.487Z,100.00
2023-01-11T17:59:41.172Z,100.00
2023-01-11T18:01:49.273Z,100.00
2023-01-11T18:03:54.252Z,100.00
2023-01-11T18:05:57.051Z,100.00
2023-01-11T18:08:00.969Z,100.00
2023-01-11T18:10:04.107Z,100.00
2023-01-11T18:12:12.911Z,100.00
2023-01-11T18:14:20.559Z,100.00
2023-01-11T18:16:24.500Z,100.00
2023-01-11T18:18:43.112Z,100.00
2023-01-11T18:20:45.658Z,100.00
2023-01-11T18:22:59.542Z,100.00
2023-01-11T18:25:15.513Z,100.00
2023-01-11T18:27:30.151Z,100.00
2023-01-11T18:29:48.375Z,100.00
2023-01-11T18:31:51.019Z,100.00
2023-01-11T18:33:55.167Z,100.00
2023-01-11T18:36:00.154Z,100.00
2023-01-11T18:38:02.873Z,100.00
2023-01-11T18:40:06.444Z,100.00
2023-01-11T18:42:12.883Z,100.00
2023-01-11T18:44:15.597Z,100.00
2023-01-11T18:46:18.325Z,100.00
2023-01-11T18:48:21.097Z,100.00
2023-01-11T18:50:25.101Z,100.00
2023-01-11T18:52:29.376Z,100.00
2023-01-11T18:54:32.266Z,100.00
2023-01-11T18:56:35.035Z,100.00
2023-01-11T18:58:37.710Z,100.00
2023-01-11T19:00:41.589Z,100.00
2023-01-11T19:02:45.260Z,100.00
2023-01-11T19:04:48.744Z,100.00
2023-01-11T19:06:53.160Z,100.00
2023-01-11T19:08:55.763Z,100.00
2023-01-11T19:10:58.498Z,100.00
2023-01-11T19:13:01.501Z,100.00
2023-01-11T19:15:04.385Z,100.00
2023-01-11T19:17:07.143Z,100.00
2023-01-11T19:19:09.760Z,100.00
2023-01-11T19:21:13.971Z,100.00
2023-01-11T19:23:18.012Z,100.00
2023-01-11T19:25:20.689Z,100.00
2023-01-11T19:27:23.718Z,100.00
2023-01-11T19:29:26.635Z,100.00
2023-01-11T19:31:29.613Z,100.00
2023-01-11T19:33:32.295Z,100.00
2023-01-11T19:35:34.924Z,100.00
2023-01-11T19:37:38.373Z,100.00
2023-01-11T19:39:42.780Z,100.00
2023-01-11T19:42:02.205Z,100.00
2023-01-11T19:44:04.974Z,100.00
2023-01-11T19:46:11.403Z,100.00
2023-01-11T19:48:14.153Z,100.00
2023-01-11T19:50:17.889Z,100.00
2023-01-11T19:52:21.652Z,100.00
2023-01-11T19:54:25.466Z,100.00
2023-01-11T19:56:29.456Z,100.00
2023-01-11T19:58:33.296Z,100.00
2023-01-11T20:00:36.104Z,100.00
2023-01-11T20:02:38.896Z,100.00
2023-01-11T20:04:42.249Z,100.00
2023-01-11T20:06:50.207Z,100.00
2023-01-11T20:08:53.106Z,100.00
2023-01-11T20:10:55.776Z,100.00
2023-01-11T20:12:59.845Z,100.00
2023-01-11T20:15:03.359Z,100.00
2023-01-11T20:17:06.061Z,100.00
2023-01-11T20:19:08.775Z,100.00
2023-01-11T20:21:12.049Z,100.00
2023-01-11T20:23:14.725Z,100.00
2023-01-11T20:25:17.901Z,100.00
2023-01-11T20:27:20.841Z,100.00
2023-01-11T20:29:24.837Z,100.00
2023-01-11T20:31:31.491Z,100.00
2023-01-11T20:33:34.116Z,100.00
2023-01-11T20:35:37.730Z,100.00
2023-01-11T20:37:40.436Z,100.00
2023-01-11T20:39:43.165Z,100.00
2023-01-11T20:41:48.794Z,100.00
2023-01-11T20:43:51.652Z,100.00
2023-01-11T20:45:58.574Z,100.00
2023-01-11T20:48:01.278Z,100.00
2023-01-11T20:50:04.038Z,100.00
2023-01-11T20:52:06.799Z,100.00
2023-01-11T20:54:10.194Z,100.00
2023-01-11T20:56:12.814Z,100.00
2023-01-11T20:58:15.447Z,100.00
2023-01-11T21:00:19.198Z,100.00
2023-01-11T21:02:23.307Z,100.00
2023-01-11T21:04:26.028Z,100.00
2023-01-11T21:06:29.232Z,100.00
2023-01-11T21:08:32.053Z,100.00
2023-01-11T21:10:34.684Z,100.00
2023-01-11T21:14:39.748Z,100.00
2023-01-11T21:16:44.254Z,100.00
2023-01-11T21:18:48.365Z,100.00
2023-01-11T21:20:51.111Z,100.00
2023-01-11T21:22:53.719Z,100.00
2023-01-11T21:24:56.451Z,100.00
2023-01-11T21:26:59.138Z,100.00
2023-01-11T21:29:05.119Z,100.00
2023-01-11T21:31:08.264Z,100.00
2023-01-11T21:33:10.967Z,100.00
2023-01-11T21:35:15.028Z,100.00
2023-01-11T21:37:19.709Z,100.00
2023-01-11T21:39:22.308Z,100.00
2023-01-11T21:41:40.953Z,100.00
2023-01-11T21:43:44.760Z,100.00
2023-01-11T21:45:55.593Z,100.00
2023-01-11T21:47:58.287Z,100.00
2023-01-11T21:50:01.027Z,100.00
2023-01-11T21:52:05.137Z,100.00
2023-01-11T21:54:09.468Z,100.00
2023-01-11T21:56:12.153Z,100.00
2023-01-11T21:58:14.805Z,100.00
2023-01-11T22:00:18.114Z,100.00
2023-01-11T22:02:20.894Z,100.00
2023-01-11T22:04:23.772Z,100.00
2023-01-11T22:06:26.569Z,100.00
2023-01-11T22:08:30.857Z,100.00
2023-01-11T22:10:34.068Z,100.00
2023-01-11T22:12:36.906Z,100.00
2023-01-11T22:14:39.616Z,100.00
2023-01-11T22:16:42.340Z,100.00
2023-01-11T22:18:46.256Z,100.00
2023-01-11T22:20:48.948Z,100.00
2023-01-11T22:22:51.620Z,100.00
2023-01-11T22:24:55.887Z,100.00
2023-01-11T22:26:58.595Z,100.00
2023-01-11T22:29:14.905Z,100.00
2023-01-11T22:31:18.078Z,100.00
2023-01-11T22:33:20.873Z,100.00
2023-01-11T22:35:23.594Z,100.00
2023-01-11T22:37:26.268Z,100.00
2023-01-11T22:39:29.486Z,100.00
2023-01-11T22:41:33.947Z,100.00
2023-01-11T22:43:36.693Z,100.00
2023-01-11T22:45:39.466Z,100.00
2023-01-11T22:47:42.124Z,100.00
2023-01-11T22:49:45.386Z,100.00
2023-01-11T22:51:48.398Z,100.00
2023-01-11T22:53:52.540Z,100.00
2023-01-11T22:55:55.168Z,100.00
2023-01-11T22:57:59.185Z,100.00
2023-01-11T23:00:04.576Z,100.00
2023-01-11T23:02:07.281Z,100.00
2023-01-11T23:04:13.071Z,100.00
2023-01-11T23:06:19.057Z,100.00
2023-01-11T23:08:21.689Z,100.00
2023-01-11T23:10:24.446Z,100.00
2023-01-11T23:12:44.759Z,100.00
2023-01-11T23:14:48.812Z,100.00
2023-01-11T23:16:51.485Z,100.00
2023-01-11T23:18:54.236Z,100.00
2023-01-11T23:21:02.727Z,100.00
2023-01-11T23:23:05.342Z,100.00
2023-01-11T23:25:09.153Z,100.00
2023-01-11T23:27:11.846Z,100.00
2023-01-11T23:29:14.571Z,100.00
2023-01-11T23:31:21.398Z,100.00
2023-01-11T23:33:24.200Z,100.00
2023-01-11T23:35:26.909Z,100.00
2023-01-11T23:37:29.510Z,100.00
2023-01-11T23:39:32.818Z,100.00
2023-01-11T23:41:53.115Z,100.00
2023-01-11T23:43:55.987Z,100.00
2023-01-11T23:46:19.242Z,100.00
2023-01-11T23:48:26.364Z,100.00
2023-01-11T23:50:29.056Z,100.00
2023-01-11T23:52:33.052Z,100.00
2023-01-11T23:54:35.739Z,100.00
2023-01-11T23:56:38.735Z,100.00
2023-01-11T23:58:41.350Z,100.00
